Time;durP1;ratioP1;P1;durP2;ratioP2;P2;SDS_P1;SDS_P2;PMS_P1;PMS_P2;Temp;Humidity;BMP_temperature;BMP_pressure;BME280_temperature;BME280_humidity;BME280_pressure;Samples;Min_cycle;Max_cycle;Signal;HPM_P1;HPM_P2
2022/09/19 00:00:13;;;;;;;;;;;13.90;63.00;;;;;;5027056;28;87200;-42
2022/09/19 00:02:38;;;;;;;;;;;13.80;62.90;;;;;;5023678;28;88022;-42
2022/09/19 00:05:09;;;;;;;;;;;13.80;62.80;;;;;;5023392;28;88009;-42
2022/09/19 00:07:35;;;;;;;;;;;13.80;63.00;;;;;;5024155;28;88328;-42
2022/09/19 00:10:01;;;;;;;;;;;13.80;63.00;;;;;;5023183;28;87261;-42
2022/09/19 00:12:28;;;;;;;;;;;13.80;62.90;;;;;;5023689;28;87040;-42
2022/09/19 00:14:55;;;;;;;;;;;13.70;62.80;;;;;;5023766;28;87409;-42
2022/09/19 00:17:20;;;;;;;;;;;13.70;62.90;;;;;;5023413;28;87921;-42
2022/09/19 00:19:46;;;;;;;;;;;13.70;62.80;;;;;;5024044;28;87304;-42
2022/09/19 00:22:11;;;;;;;;;;;13.70;62.90;;;;;;5026809;28;87551;-42
2022/09/19 00:24:46;;;;;;;;;;;13.70;62.80;;;;;;5023262;28;87239;-42
2022/09/19 00:27:19;;;;;;;;;;;13.70;62.80;;;;;;5023949;28;87151;-42
2022/09/19 00:29:45;;;;;;;;;;;13.70;62.70;;;;;;5022474;28;89036;-42
2022/09/19 00:32:14;;;;;;;;;;;13.70;62.80;;;;;;5023610;28;86977;-42
2022/09/19 00:34:41;;;;;;;;;;;13.70;62.70;;;;;;5023610;28;87361;-42
2022/09/19 00:37:07;;;;;;;;;;;13.60;62.60;;;;;;5022813;28;88095;-42
2022/09/19 00:39:33;;;;;;;;;;;13.70;62.60;;;;;;5023600;28;86875;-42
2022/09/19 00:41:58;;;;;;;;;;;13.60;62.60;;;;;;5023266;28;87064;-42
2022/09/19 00:44:24;;;;;;;;;;;13.60;62.70;;;;;;5025991;28;88030;-42
2022/09/19 00:46:51;;;;;;;;;;;13.60;62.70;;;;;;5023860;28;87361;-42
2022/09/19 00:49:19;;;;;;;;;;;13.60;62.70;;;;;;5022803;28;88374;-42
2022/09/19 00:51:53;;;;;;;;;;;13.60;62.60;;;;;;5021695;28;87048;-42
2022/09/19 00:54:40;;;;;;;;;;;13.50;62.70;;;;;;5022663;28;88114;-42
2022/09/19 00:57:06;;;;;;;;;;;13.50;62.60;;;;;;5022919;28;87300;-42
2022/09/19 00:59:34;;;;;;;;;;;13.50;62.60;;;;;;5023249;28;87764;-42
2022/09/19 01:02:02;;;;;;;;;;;13.50;62.70;;;;;;5023130;28;87240;-42
2022/09/19 01:04:30;;;;;;;;;;;13.50;62.70;;;;;;5022586;28;87993;-42
2022/09/19 01:06:58;;;;;;;;;;;13.50;62.60;;;;;;5025724;28;87354;-42
2022/09/19 01:09:27;;;;;;;;;;;13.50;62.60;;;;;;5022300;28;87289;-42
2022/09/19 01:12:16;;;;;;;;;;;13.40;62.50;;;;;;5023647;28;86843;-42
2022/09/19 01:14:53;;;;;;;;;;;13.40;63.10;;;;;;5016891;28;87270;-42
2022/09/19 01:17:22;;;;;;;;;;;13.30;62.50;;;;;;5022420;28;88231;-42
2022/09/19 01:19:50;;;;;;;;;;;13.40;63.10;;;;;;5022118;28;88038;-42
2022/09/19 01:22:32;;;;;;;;;;;13.40;62.50;;;;;;5022954;28;88393;-42
2022/09/19 01:25:05;;;;;;;;;;;13.40;62.50;;;;;;5022129;28;88509;-42
2022/09/19 01:27:41;;;;;;;;;;;13.30;62.40;;;;;;5023048;28;86908;-42
2022/09/19 01:30:08;;;;;;;;;;;13.30;62.50;;;;;;5025297;28;87348;-42
2022/09/19 01:32:37;;;;;;;;;;;13.30;62.50;;;;;;5022850;28;87447;-42
2022/09/19 01:35:06;;;;;;;;;;;13.30;62.50;;;;;;5022419;28;87462;-42
2022/09/19 01:37:37;;;;;;;;;;;13.30;62.40;;;;;;5022553;28;87365;-42
2022/09/19 01:40:04;;;;;;;;;;;13.30;62.40;;;;;;5022540;28;87090;-42
2022/09/19 01:42:30;;;;;;;;;;;13.20;62.40;;;;;;5022368;28;88896;-42
2022/09/19 01:44:55;;;;;;;;;;;13.20;62.40;;;;;;5021510;28;88960;-42
2022/09/19 01:47:31;;;;;;;;;;;13.20;62.40;;;;;;5022503;28;87147;-42
2022/09/19 01:50:15;;;;;;;;;;;13.20;62.40;;;;;;5024809;28;86905;-42
2022/09/19 01:52:53;;;;;;;;;;;13.20;62.40;;;;;;5022565;28;86965;-42
2022/09/19 01:55:27;;;;;;;;;;;13.10;62.30;;;;;;5025891;28;87586;-42
2022/09/19 01:58:08;;;;;;;;;;;13.10;62.30;;;;;;5025640;28;88020;-42
2022/09/19 02:00:37;;;;;;;;;;;13.10;62.30;;;;;;5025688;28;87103;-42
2022/09/19 02:03:12;;;;;;;;;;;13.10;62.40;;;;;;5026300;28;87386;-42
2022/09/19 02:05:49;;;;;;;;;;;13.10;62.40;;;;;;5025560;28;87967;-42
2022/09/19 02:08:20;;;;;;;;;;;13.00;62.30;;;;;;5025687;28;86992;-42
2022/09/19 02:11:00;;;;;;;;;;;13.00;62.30;;;;;;5025408;28;87827;-42
2022/09/19 02:13:27;;;;;;;;;;;13.00;62.40;;;;;;5028177;28;88433;-42
2022/09/19 02:15:59;;;;;;;;;;;12.90;62.30;;;;;;5025539;28;87484;-42
2022/09/19 02:18:29;;;;;;;;;;;13.00;62.50;;;;;;5025293;28;87996;-42
2022/09/19 02:20:59;;;;;;;;;;;12.90;62.30;;;;;;5025528;28;87353;-42
2022/09/19 02:23:27;;;;;;;;;;;12.90;62.30;;;;;;5025609;28;86985;-42
2022/09/19 02:25:55;;;;;;;;;;;12.90;62.20;;;;;;5024844;28;87994;-42
2022/09/19 02:28:48;;;;;;;;;;;12.90;62.20;;;;;;5025985;28;86387;-42
2022/09/19 02:31:14;;;;;;;;;;;12.90;62.20;;;;;;5023635;28;87170;-42
2022/09/19 02:33:43;;;;;;;;;;;12.80;62.40;;;;;;5025090;28;88110;-42
2022/09/19 02:36:09;;;;;;;;;;;12.80;62.40;;;;;;5027478;28;88046;-42
2022/09/19 02:38:36;;;;;;;;;;;12.80;62.40;;;;;;5024991;28;88006;-42
2022/09/19 02:41:09;;;;;;;;;;;12.80;62.20;;;;;;5025316;28;87079;-42
2022/09/19 02:43:46;;;;;;;;;;;12.80;62.20;;;;;;5025425;28;87345;-42
2022/09/19 02:46:16;;;;;;;;;;;12.80;62.30;;;;;;5024908;28;87250;-42
2022/09/19 02:49:08;;;;;;;;;;;12.80;62.10;;;;;;5025419;28;86986;-42
2022/09/19 02:51:43;;;;;;;;;;;12.80;62.20;;;;;;5025281;28;86983;-42
2022/09/19 02:54:10;;;;;;;;;;;12.80;62.20;;;;;;5025210;28;87494;-42
2022/09/19 02:56:37;;;;;;;;;;;12.70;62.10;;;;;;5025047;28;86836;-42
2022/09/19 02:59:09;;;;;;;;;;;12.70;62.10;;;;;;5027523;28;87468;-42
2022/09/19 03:01:37;;;;;;;;;;;12.70;62.20;;;;;;5024144;28;88014;-42
2022/09/19 03:04:14;;;;;;;;;;;12.70;62.70;;;;;;5024834;28;88446;-42
2022/09/19 03:06:40;;;;;;;;;;;12.70;62.10;;;;;;5024829;28;87193;-42
2022/09/19 03:09:06;;;;;;;;;;;12.60;62.10;;;;;;5024547;28;87388;-42
2022/09/19 03:11:34;;;;;;;;;;;12.50;62.40;;;;;;5024836;28;86986;-42
2022/09/19 03:14:01;;;;;;;;;;;12.60;62.30;;;;;;5024044;28;89243;-42
2022/09/19 03:16:34;;;;;;;;;;;12.60;62.30;;;;;;5024828;28;87165;-42
2022/09/19 03:19:01;;;;;;;;;;;12.50;62.30;;;;;;5025422;28;87356;-42
2022/09/19 03:21:27;;;;;;;;;;;12.50;62.30;;;;;;5027425;28;87318;-42
2022/09/19 03:23:58;;;;;;;;;;;12.50;62.30;;;;;;5024854;28;87748;-41
2022/09/19 03:26:34;;;;;;;;;;;12.50;62.30;;;;;;5021733;28;89756;-42
2022/09/19 03:29:00;;;;;;;;;;;12.50;62.30;;;;;;5024583;28;86956;-42
2022/09/19 03:31:26;;;;;;;;;;;12.40;62.20;;;;;;5024426;28;87467;-41
2022/09/19 03:33:52;;;;;;;;;;;12.50;62.10;;;;;;5024220;28;87650;-42
2022/09/19 03:36:18;;;;;;;;;;;12.40;62.20;;;;;;5024441;28;87039;-42
2022/09/19 03:38:46;;;;;;;;;;;12.30;62.30;;;;;;5024678;28;87507;-42
2022/09/19 03:41:15;;;;;;;;;;;12.30;62.40;;;;;;5023871;28;87196;-41
2022/09/19 03:43:44;;;;;;;;;;;12.30;62.40;;;;;;5027716;28;86068;-42
2022/09/19 03:46:11;;;;;;;;;;;12.30;62.20;;;;;;5023843;28;88152;-42
2022/09/19 03:48:37;;;;;;;;;;;12.20;62.40;;;;;;5024235;28;86833;-42
2022/09/19 03:53:47;;;;;;;;;;;12.30;62.40;;;;;;5023835;28;87286;-42
2022/09/19 03:56:13;;;;;;;;;;;12.20;62.20;;;;;;5024188;28;87050;-42
2022/09/19 03:58:39;;;;;;;;;;;12.20;62.40;;;;;;5024261;28;87457;-41
2022/09/19 04:01:06;;;;;;;;;;;12.20;62.10;;;;;;5023657;28;88174;-42
2022/09/19 04:03:32;;;;;;;;;;;12.20;62.20;;;;;;5025714;28;86901;-42
2022/09/19 04:05:58;;;;;;;;;;;12.20;62.20;;;;;;5023565;28;88060;-42
2022/09/19 04:08:23;;;;;;;;;;;12.10;62.20;;;;;;5024335;28;86726;-42
2022/09/19 04:10:49;;;;;;;;;;;12.20;62.40;;;;;;5024054;28;86987;-42
2022/09/19 04:13:14;;;;;;;;;;;12.20;62.30;;;;;;5023792;28;88095;-42
2022/09/19 04:15:40;;;;;;;;;;;12.10;62.20;;;;;;5022941;28;87869;-42
2022/09/19 04:18:06;;;;;;;;;;;12.10;62.30;;;;;;5023515;28;88487;-42
2022/09/19 04:20:32;;;;;;;;;;;12.10;62.20;;;;;;5023351;28;88066;-42
2022/09/19 04:23:01;;;;;;;;;;;12.00;62.50;;;;;;5022390;28;87348;-41
2022/09/19 04:25:29;;;;;;;;;;;12.10;62.40;;;;;;5025795;28;87694;-41
2022/09/19 04:27:55;;;;;;;;;;;12.00;62.40;;;;;;5023525;28;87009;-42
2022/09/19 04:30:23;;;;;;;;;;;12.00;62.30;;;;;;5023664;28;87590;-42
2022/09/19 04:32:50;;;;;;;;;;;12.10;62.20;;;;;;5023739;28;87285;-41
2022/09/19 04:35:15;;;;;;;;;;;12.00;62.10;;;;;;5023519;28;87010;-42
2022/09/19 04:37:41;;;;;;;;;;;12.00;62.20;;;;;;5023459;28;87395;-42
2022/09/19 04:40:06;;;;;;;;;;;12.00;62.20;;;;;;5022467;28;88123;-42
2022/09/19 04:42:34;;;;;;;;;;;12.00;62.00;;;;;;5023279;28;87103;-42
2022/09/19 04:44:59;;;;;;;;;;;12.00;62.70;;;;;;5023568;28;87561;-41
2022/09/19 04:47:25;;;;;;;;;;;12.00;62.20;;;;;;5025865;28;87865;-42
2022/09/19 04:49:51;;;;;;;;;;;11.90;62.10;;;;;;5023721;28;87458;-41
2022/09/19 04:52:16;;;;;;;;;;;12.00;62.00;;;;;;5022940;28;87902;-42
2022/09/19 04:54:42;;;;;;;;;;;12.00;62.00;;;;;;5023275;28;87127;-42
2022/09/19 04:57:09;;;;;;;;;;;11.90;62.00;;;;;;5023742;28;87487;-42
2022/09/19 04:59:35;;;;;;;;;;;11.90;62.00;;;;;;5022790;28;88119;-42
2022/09/19 05:02:02;;;;;;;;;;;11.80;62.20;;;;;;5023201;28;87257;-42
2022/09/19 05:04:28;;;;;;;;;;;11.80;62.30;;;;;;5022628;28;87942;-41
2022/09/19 05:06:54;;;;;;;;;;;11.80;62.20;;;;;;5022667;28;88226;-42
2022/09/19 05:09:22;;;;;;;;;;;11.80;62.30;;;;;;5025730;28;87143;-42
2022/09/19 05:11:48;;;;;;;;;;;11.80;62.30;;;;;;5022669;28;89417;-42
2022/09/19 05:14:13;;;;;;;;;;;11.80;62.20;;;;;;5022950;28;87107;-41
2022/09/19 05:16:39;;;;;;;;;;;11.80;62.20;;;;;;5022950;28;87444;-42
2022/09/19 05:19:05;;;;;;;;;;;11.80;62.10;;;;;;5022604;28;88065;-42
2022/09/19 05:21:32;;;;;;;;;;;11.80;62.20;;;;;;5023210;28;86529;-42
2022/09/19 05:23:58;;;;;;;;;;;11.80;62.00;;;;;;5022791;28;87041;-42
2022/09/19 05:26:23;;;;;;;;;;;11.80;61.90;;;;;;5022387;28;88430;-42
2022/09/19 05:28:50;;;;;;;;;;;11.80;61.90;;;;;;5020904;28;88099;-42
2022/09/19 05:31:18;;;;;;;;;;;11.80;62.00;;;;;;5025310;28;88276;-41
2022/09/19 05:33:43;;;;;;;;;;;11.80;62.00;;;;;;5022537;28;87112;-42
2022/09/19 05:36:09;;;;;;;;;;;11.80;62.00;;;;;;5022370;28;87346;-41
2022/09/19 05:38:35;;;;;;;;;;;11.70;61.90;;;;;;5022332;28;88159;-42
2022/09/19 05:41:01;;;;;;;;;;;11.70;62.00;;;;;;5022405;28;87079;-42
2022/09/19 05:43:27;;;;;;;;;;;11.70;62.10;;;;;;5022417;28;86984;-42
2022/09/19 05:45:54;;;;;;;;;;;11.60;62.10;;;;;;5022758;28;86220;-42
2022/09/19 05:48:20;;;;;;;;;;;11.60;62.20;;;;;;5022680;28;87052;-42
2022/09/19 05:50:46;;;;;;;;;;;11.70;62.20;;;;;;5025065;28;87365;-42
2022/09/19 05:55:56;;;;;;;;;;;11.70;62.00;;;;;;5021027;28;87557;-42
2022/09/19 05:58:22;;;;;;;;;;;11.70;62.10;;;;;;5022089;28;87859;-42
2022/09/19 06:00:47;;;;;;;;;;;11.70;62.20;;;;;;5022245;28;87245;-42
2022/09/19 06:03:17;;;;;;;;;;;11.70;62.10;;;;;;5022170;28;86993;-42
2022/09/19 06:05:45;;;;;;;;;;;11.70;62.10;;;;;;5021730;28;88340;-42
2022/09/19 06:08:11;;;;;;;;;;;11.60;62.10;;;;;;5021764;28;87078;-42
2022/09/19 06:10:39;;;;;;;;;;;11.60;62.30;;;;;;5023034;28;87277;-42
2022/09/19 06:13:04;;;;;;;;;;;11.70;62.20;;;;;;5024815;28;87223;-42
2022/09/19 06:15:30;;;;;;;;;;;11.60;62.20;;;;;;5022300;28;87364;-42
2022/09/19 06:17:56;;;;;;;;;;;11.60;62.50;;;;;;5021038;28;88956;-42
2022/09/19 06:20:22;;;;;;;;;;;11.50;62.50;;;;;;5022105;28;87093;-42
2022/09/19 06:22:47;;;;;;;;;;;11.60;62.60;;;;;;5022146;28;87319;-42
2022/09/19 06:25:13;;;;;;;;;;;11.60;62.60;;;;;;5021713;28;87921;-42
2022/09/19 06:27:39;;;;;;;;;;;11.60;62.50;;;;;;5022037;28;87354;-42
2022/09/19 06:30:05;;;;;;;;;;;11.50;62.60;;;;;;5022129;28;87447;-42
2022/09/19 06:32:31;;;;;;;;;;;11.50;62.70;;;;;;5021501;28;88058;-42
2022/09/19 06:34:56;;;;;;;;;;;11.50;62.70;;;;;;5025300;28;86431;-42
2022/09/19 06:37:22;;;;;;;;;;;11.50;62.70;;;;;;5021551;28;88157;-42
2022/09/19 06:39:47;;;;;;;;;;;11.50;62.70;;;;;;5023157;28;87201;-42
2022/09/19 06:42:13;;;;;;;;;;;11.50;62.80;;;;;;5024688;28;88401;-42
2022/09/19 06:44:38;;;;;;;;;;;11.50;62.80;;;;;;5024937;28;88274;-42
2022/09/19 06:47:05;;;;;;;;;;;11.50;63.50;;;;;;5025358;28;87375;-42
2022/09/19 06:49:31;;;;;;;;;;;11.50;63.00;;;;;;5025385;28;87158;-42
2022/09/19 06:51:57;;;;;;;;;;;11.50;63.00;;;;;;5024797;28;88176;-42
2022/09/19 06:54:22;;;;;;;;;;;11.40;63.00;;;;;;5025138;28;87018;-42
2022/09/19 06:56:49;;;;;;;;;;;11.50;63.10;;;;;;5027601;28;87415;-42
2022/09/19 06:59:17;;;;;;;;;;;11.40;63.20;;;;;;5025601;28;86299;-42
2022/09/19 07:01:42;;;;;;;;;;;11.40;63.20;;;;;;5024836;28;87024;-42
2022/09/19 07:04:08;;;;;;;;;;;11.40;63.20;;;;;;5024441;28;88692;-42
2022/09/19 07:06:37;;;;;;;;;;;11.40;63.30;;;;;;5024231;28;88150;-42
2022/09/19 07:09:03;;;;;;;;;;;11.40;63.30;;;;;;5024114;28;88357;-42
2022/09/19 07:11:29;;;;;;;;;;;11.40;63.20;;;;;;5024592;28;88015;-41
2022/09/19 07:13:54;;;;;;;;;;;11.40;63.40;;;;;;5024883;28;86988;-42
2022/09/19 07:16:20;;;;;;;;;;;11.40;63.40;;;;;;5024563;28;87004;-42
2022/09/19 07:18:45;;;;;;;;;;;11.40;63.40;;;;;;5027470;28;87895;-42
2022/09/19 07:21:11;;;;;;;;;;;11.40;63.50;;;;;;5024891;28;87300;-42
2022/09/19 07:23:37;;;;;;;;;;;11.40;63.50;;;;;;5024836;28;87327;-42
2022/09/19 07:26:03;;;;;;;;;;;11.40;63.60;;;;;;5024556;28;87264;-42
2022/09/19 07:28:28;;;;;;;;;;;11.30;63.60;;;;;;5024770;28;87375;-42
2022/09/19 07:30:56;;;;;;;;;;;11.30;63.80;;;;;;5023457;28;88812;-42
2022/09/19 07:33:23;;;;;;;;;;;11.30;63.70;;;;;;5024618;28;87070;-42
2022/09/19 07:35:51;;;;;;;;;;;11.30;63.80;;;;;;5024467;28;87291;-42
2022/09/19 07:38:18;;;;;;;;;;;11.30;63.90;;;;;;5024023;28;88067;-42
2022/09/19 07:40:43;;;;;;;;;;;11.20;64.00;;;;;;5027501;28;87085;-42
2022/09/19 07:43:11;;;;;;;;;;;11.30;64.10;;;;;;5024176;28;88722;-42
2022/09/19 07:45:36;;;;;;;;;;;11.30;64.10;;;;;;5024104;28;87115;-42
2022/09/19 07:48:03;;;;;;;;;;;11.30;64.10;;;;;;5025077;28;87179;-42
2022/09/19 07:50:29;;;;;;;;;;;11.30;64.00;;;;;;5023835;28;87333;-42
2022/09/19 07:52:58;;;;;;;;;;;11.30;64.00;;;;;;5023633;28;87007;-42
2022/09/19 07:55:24;;;;;;;;;;;11.30;64.00;;;;;;5023711;28;87822;-42
2022/09/19 07:57:55;;;;;;;;;;;11.30;63.90;;;;;;5022311;28;90775;-42
2022/09/19 08:00:20;;;;;;;;;;;11.30;64.00;;;;;;5026760;28;87031;-42
2022/09/19 08:02:53;;;;;;;;;;;11.30;64.00;;;;;;5023733;28;88190;-42
2022/09/19 08:05:19;;;;;;;;;;;11.30;64.00;;;;;;5024069;28;87063;-42
2022/09/19 08:07:45;;;;;;;;;;;11.40;64.10;;;;;;5024162;28;86872;-42
2022/09/19 08:10:11;;;;;;;;;;;11.40;64.10;;;;;;5023484;28;87980;-42
2022/09/19 08:12:37;;;;;;;;;;;11.40;64.10;;;;;;5024460;28;86399;-42
2022/09/19 08:15:03;;;;;;;;;;;11.30;64.40;;;;;;5023679;28;87649;-42
2022/09/19 08:17:28;;;;;;;;;;;11.30;64.40;;;;;;5023417;28;87161;-42
2022/09/19 08:19:56;;;;;;;;;;;11.40;64.20;;;;;;5023249;28;88108;-42
2022/09/19 08:22:21;;;;;;;;;;;11.40;64.20;;;;;;5026326;28;88264;-42
2022/09/19 08:24:47;;;;;;;;;;;11.40;64.20;;;;;;5023956;28;87084;-42
2022/09/19 08:27:14;;;;;;;;;;;11.40;64.20;;;;;;5023635;28;87497;-42
2022/09/19 08:29:39;;;;;;;;;;;11.40;64.40;;;;;;5023224;28;88196;-42
2022/09/19 08:32:06;;;;;;;;;;;11.50;64.20;;;;;;5024079;28;87335;-42
2022/09/19 08:34:31;;;;;;;;;;;11.50;64.30;;;;;;5023599;28;86888;-42
2022/09/19 08:37:00;;;;;;;;;;;11.40;64.40;;;;;;5023863;28;87375;-42
2022/09/19 08:39:26;;;;;;;;;;;11.50;64.30;;;;;;5023627;28;88436;-42
2022/09/19 08:42:00;;;;;;;;;;;11.40;64.40;;;;;;5023590;28;87435;-42
2022/09/19 08:44:41;;;;;;;;;;;11.50;64.50;;;;;;5025492;28;89109;-42
2022/09/19 08:47:11;;;;;;;;;;;11.50;65.00;;;;;;5023491;28;88323;-42
2022/09/19 08:49:40;;;;;;;;;;;11.40;64.50;;;;;;5022710;28;87907;-42
2022/09/19 08:52:08;;;;;;;;;;;11.50;64.50;;;;;;5023293;28;87303;-42
2022/09/19 08:54:37;;;;;;;;;;;11.50;64.60;;;;;;5023027;28;87362;-42
2022/09/19 08:57:03;;;;;;;;;;;11.50;64.40;;;;;;5022758;28;88252;-42
2022/09/19 08:59:39;;;;;;;;;;;11.50;64.30;;;;;;5023352;28;87142;-42
2022/09/19 09:02:17;;;;;;;;;;;11.50;64.30;;;;;;5023546;28;88027;-41
2022/09/19 09:04:43;;;;;;;;;;;11.50;64.60;;;;;;5022871;28;87892;-42
2022/09/19 09:07:11;;;;;;;;;;;11.50;64.20;;;;;;5025882;28;87191;-42
2022/09/19 09:09:40;;;;;;;;;;;11.60;64.40;;;;;;5021607;28;88957;-42
2022/09/19 09:12:12;;;;;;;;;;;11.60;64.30;;;;;;5023098;28;88292;-42
2022/09/19 09:14:46;;;;;;;;;;;11.60;64.50;;;;;;5023296;28;88395;-42
2022/09/19 09:17:28;;;;;;;;;;;11.60;64.30;;;;;;5022396;28;87972;-42
2022/09/19 09:20:08;;;;;;;;;;;11.60;64.40;;;;;;5022773;28;86928;-42
2022/09/19 09:22:38;;;;;;;;;;;11.60;64.40;;;;;;5023207;28;87300;-42
2022/09/19 09:25:14;;;;;;;;;;;11.70;64.50;;;;;;5022347;28;87907;-42
2022/09/19 09:27:49;;;;;;;;;;;11.70;64.50;;;;;;5023501;28;86408;-42
2022/09/19 09:30:17;;;;;;;;;;;11.70;64.40;;;;;;5025213;28;87051;-42
2022/09/19 09:32:56;;;;;;;;;;;11.80;64.30;;;;;;5022712;28;87513;-42
2022/09/19 09:35:26;;;;;;;;;;;11.70;64.20;;;;;;5022189;28;87845;-42
2022/09/19 09:38:01;;;;;;;;;;;11.80;64.10;;;;;;5022035;28;88008;-42
2022/09/19 09:43:33;;;;;;;;;;;11.90;64.20;;;;;;5020849;28;86883;-42
2022/09/19 09:46:00;;;;;;;;;;;11.80;64.10;;;;;;5021993;28;88278;-42
2022/09/19 09:48:36;;;;;;;;;;;11.80;64.10;;;;;;5022586;28;87100;-42
2022/09/19 09:51:23;;;;;;;;;;;11.90;64.20;;;;;;5022337;28;88010;-42
2022/09/19 09:53:51;;;;;;;;;;;11.90;64.20;;;;;;5017765;28;87271;-42
2022/09/19 09:56:35;;;;;;;;;;;11.90;64.00;;;;;;5022413;28;86942;-42
2022/09/19 10:05:08;;;;;;;;;;;11.90;64.00;;;;;;5022506;28;87488;-42
2022/09/19 10:07:45;;;;;;;;;;;12.00;64.00;;;;;;5021924;28;87775;-42
2022/09/19 10:10:16;;;;;;;;;;;12.00;63.70;;;;;;5022134;28;87319;-42
2022/09/19 10:12:49;;;;;;;;;;;12.10;63.80;;;;;;5022242;28;87375;-42
2022/09/19 10:15:17;;;;;;;;;;;12.10;63.80;;;;;;5026672;28;88292;-42
2022/09/19 10:17:46;;;;;;;;;;;12.10;63.70;;;;;;5025600;28;87388;-42
2022/09/19 10:20:20;;;;;;;;;;;12.10;63.70;;;;;;5025892;28;87387;-42
2022/09/19 10:22:46;;;;;;;;;;;12.10;63.70;;;;;;5025441;28;86983;-42
2022/09/19 10:25:13;;;;;;;;;;;12.20;63.70;;;;;;5025855;28;87291;-42
2022/09/19 10:27:41;;;;;;;;;;;12.20;63.60;;;;;;5024430;28;89018;-42
2022/09/19 10:30:18;;;;;;;;;;;12.20;63.60;;;;;;5025410;28;87032;-42
2022/09/19 10:32:45;;;;;;;;;;;12.20;63.60;;;;;;5025431;28;86970;-42
2022/09/19 10:35:33;;;;;;;;;;;12.20;63.50;;;;;;5025037;28;87969;-42
2022/09/19 10:37:59;;;;;;;;;;;12.20;63.50;;;;;;5022589;28;87079;-42
2022/09/19 10:40:25;;;;;;;;;;;12.20;63.60;;;;;;5025153;28;87901;-42
2022/09/19 10:42:52;;;;;;;;;;;12.20;63.50;;;;;;5025324;28;87152;-42
2022/09/19 10:45:25;;;;;;;;;;;12.30;63.50;;;;;;5025741;28;87482;-42
2022/09/19 10:47:56;;;;;;;;;;;12.30;63.30;;;;;;5024807;28;88444;-42
2022/09/19 10:50:22;;;;;;;;;;;12.30;63.30;;;;;;5025327;28;87597;-42
2022/09/19 10:52:49;;;;;;;;;;;12.30;63.30;;;;;;5024663;28;88002;-42
2022/09/19 10:55:20;;;;;;;;;;;12.40;63.20;;;;;;5024786;28;88181;-42
2022/09/19 10:57:59;;;;;;;;;;;12.40;63.20;;;;;;5025304;28;87391;-42
2022/09/19 11:00:26;;;;;;;;;;;12.40;63.20;;;;;;5027882;28;87469;-42
2022/09/19 11:03:15;;;;;;;;;;;12.50;63.00;;;;;;5024874;28;87107;-42
2022/09/19 11:05:40;;;;;;;;;;;12.50;62.90;;;;;;5019181;28;87446;-41
2022/09/19 11:08:23;;;;;;;;;;;12.50;62.70;;;;;;5024194;28;88325;-42
2022/09/19 11:10:48;;;;;;;;;;;12.50;62.80;;;;;;5025512;28;86262;-42
2022/09/19 11:13:20;;;;;;;;;;;12.50;62.70;;;;;;5025037;28;87033;-42
2022/09/19 11:15:55;;;;;;;;;;;12.60;62.70;;;;;;5024485;28;87955;-42
2022/09/19 11:18:38;;;;;;;;;;;12.60;62.70;;;;;;5024507;28;89068;-42
2022/09/19 11:21:10;;;;;;;;;;;12.60;62.60;;;;;;5024539;28;88283;-42
2022/09/19 11:23:52;;;;;;;;;;;12.60;62.60;;;;;;5027435;28;88048;-42
2022/09/19 11:26:18;;;;;;;;;;;12.70;62.60;;;;;;5023239;28;87356;-42
2022/09/19 11:28:43;;;;;;;;;;;12.70;62.40;;;;;;5024428;28;87899;-42
2022/09/19 11:31:28;;;;;;;;;;;12.80;62.30;;;;;;5024663;28;87137;-42
2022/09/19 11:34:11;;;;;;;;;;;12.80;62.30;;;;;;5024770;28;87409;-42
2022/09/19 11:36:55;;;;;;;;;;;12.80;62.20;;;;;;5024691;28;86584;-42
2022/09/19 11:39:39;;;;;;;;;;;12.80;62.20;;;;;;5024453;28;87187;-42
2022/09/19 11:42:17;;;;;;;;;;;12.80;62.20;;;;;;5024435;28;87173;-42
2022/09/19 11:45:01;;;;;;;;;;;12.80;62.30;;;;;;5023534;28;88760;-42
2022/09/19 11:47:27;;;;;;;;;;;12.80;62.30;;;;;;5027302;28;87221;-42
2022/09/19 11:49:56;;;;;;;;;;;12.90;62.40;;;;;;5024180;28;88105;-42
2022/09/19 11:52:26;;;;;;;;;;;12.90;62.20;;;;;;5024085;28;87093;-42
2022/09/19 11:55:10;;;;;;;;;;;12.90;62.20;;;;;;5024316;28;87394;-42
2022/09/19 11:57:45;;;;;;;;;;;12.90;62.20;;;;;;5023793;28;87175;-42
2022/09/19 12:00:20;;;;;;;;;;;13.00;62.20;;;;;;5024255;28;87095;-41
2022/09/19 12:02:49;;;;;;;;;;;13.00;62.20;;;;;;5024220;28;87248;-42
2022/09/19 12:05:15;;;;;;;;;;;13.00;62.20;;;;;;5023902;28;88188;-42
2022/09/19 12:07:57;;;;;;;;;;;13.00;62.20;;;;;;5024161;28;87070;-42
2022/09/19 12:10:31;;;;;;;;;;;13.10;62.20;;;;;;5026027;28;87944;-42
2022/09/19 12:13:19;;;;;;;;;;;13.10;62.10;;;;;;5024092;28;86939;-42
2022/09/19 12:15:48;;;;;;;;;;;13.10;62.20;;;;;;5024202;28;87399;-42
2022/09/19 12:18:17;;;;;;;;;;;13.10;62.00;;;;;;5023551;28;87793;-42
2022/09/19 12:20:48;;;;;;;;;;;13.10;62.00;;;;;;5023717;28;87016;-42
2022/09/19 12:26:03;;;;;;;;;;;13.20;62.00;;;;;;5023047;28;87258;-42
2022/09/19 12:28:44;;;;;;;;;;;13.20;62.10;;;;;;5024293;28;86373;-42
2022/09/19 12:31:11;;;;;;;;;;;13.20;62.10;;;;;;5026175;28;86953;-42
2022/09/19 12:33:37;;;;;;;;;;;13.20;61.90;;;;;;5023588;28;87126;-42
2022/09/19 12:36:10;;;;;;;;;;;13.30;61.90;;;;;;5022879;28;88020;-42
2022/09/19 12:38:47;;;;;;;;;;;13.30;61.80;;;;;;5022756;28;87983;-42
2022/09/19 12:41:20;;;;;;;;;;;13.30;61.80;;;;;;5023373;28;87836;-42
2022/09/19 12:44:05;;;;;;;;;;;13.30;61.80;;;;;;5023551;28;87478;-42
2022/09/19 12:46:31;;;;;;;;;;;13.40;61.80;;;;;;5023245;28;88038;-42
2022/09/19 12:49:10;;;;;;;;;;;13.40;61.70;;;;;;5023460;28;88095;-42
2022/09/19 12:51:56;;;;;;;;;;;13.40;61.80;;;;;;5023538;28;87402;-42
2022/09/19 12:54:43;;;;;;;;;;;13.40;61.80;;;;;;5025985;28;87249;-42
2022/09/19 12:57:25;;;;;;;;;;;13.50;61.80;;;;;;5001643;28;87223;-42
2022/09/19 12:59:52;;;;;;;;;;;13.50;61.70;;;;;;5023013;28;88155;-42
2022/09/19 13:02:20;;;;;;;;;;;13.50;61.60;;;;;;5022501;28;88002;-42
2022/09/19 13:04:57;;;;;;;;;;;13.60;61.80;;;;;;5023139;28;88359;-42
2022/09/19 13:07:30;;;;;;;;;;;13.60;61.60;;;;;;5022835;28;88012;-42
2022/09/19 13:10:14;;;;;;;;;;;13.60;61.60;;;;;;5022658;28;87003;-42
2022/09/19 13:12:57;;;;;;;;;;;13.60;61.70;;;;;;5023121;28;87721;-42
2022/09/19 13:15:36;;;;;;;;;;;13.60;61.50;;;;;;5022777;28;88085;-42
2022/09/19 13:23:35;;;;;;;;;;;13.70;61.50;;;;;;5023074;28;87471;-42
2022/09/19 13:26:20;;;;;;;;;;;13.70;61.60;;;;;;5022571;28;87386;-42
2022/09/19 13:28:52;;;;;;;;;;;13.80;61.60;;;;;;5021850;28;88735;-42
2022/09/19 13:31:19;;;;;;;;;;;13.80;61.50;;;;;;5022790;28;87254;-42
2022/09/19 13:33:52;;;;;;;;;;;13.80;61.80;;;;;;5022587;28;87394;-42
2022/09/19 13:36:36;;;;;;;;;;;13.90;61.70;;;;;;5022076;28;87213;-42
2022/09/19 13:39:04;;;;;;;;;;;13.90;62.00;;;;;;5022650;28;87078;-42
2022/09/19 13:42:01;;;;;;;;;;;13.90;62.00;;;;;;5025088;28;87359;-42
2022/09/19 13:44:58;;;;;;;;;;;13.90;61.90;;;;;;4999195;28;87571;-42
2022/09/19 13:47:28;;;;;;;;;;;13.90;61.80;;;;;;5014275;28;87398;-42
2022/09/19 13:50:06;;;;;;;;;;;14.00;61.70;;;;;;5021311;28;87915;-42
2022/09/19 13:52:35;;;;;;;;;;;14.00;61.60;;;;;;5022595;28;87036;-42
2022/09/19 13:55:06;;;;;;;;;;;14.00;61.90;;;;;;5021753;28;87936;-42
2022/09/19 13:57:33;;;;;;;;;;;14.00;62.00;;;;;;5022182;28;87456;-42
2022/09/19 14:00:03;;;;;;;;;;;14.10;61.70;;;;;;5022127;28;86872;-42
2022/09/19 14:02:34;;;;;;;;;;;14.10;61.80;;;;;;5022249;28;87450;-42
2022/09/19 14:05:17;;;;;;;;;;;14.10;61.70;;;;;;5024812;28;88144;-42
2022/09/19 14:07:57;;;;;;;;;;;14.10;61.70;;;;;;5022469;28;87229;-42
2022/09/19 14:10:32;;;;;;;;;;;14.10;62.00;;;;;;5021991;28;88069;-41
2022/09/19 14:13:02;;;;;;;;;;;14.10;62.00;;;;;;5022507;28;86376;-42
2022/09/19 14:15:43;;;;;;;;;;;14.10;62.10;;;;;;5022098;28;87005;-42
2022/09/19 14:18:12;;;;;;;;;;;14.20;62.10;;;;;;5021972;28;87128;-42
2022/09/19 14:20:59;;;;;;;;;;;14.20;62.00;;;;;;5021486;28;88021;-42
2022/09/19 14:23:35;;;;;;;;;;;14.20;61.90;;;;;;5022240;28;88082;-42
2022/09/19 14:26:01;;;;;;;;;;;14.20;62.00;;;;;;5021584;28;88153;-42
2022/09/19 14:28:30;;;;;;;;;;;14.20;61.90;;;;;;5025044;28;86931;-42
2022/09/19 14:31:10;;;;;;;;;;;14.20;61.80;;;;;;5021773;28;87179;-42
2022/09/19 14:33:42;;;;;;;;;;;14.30;61.70;;;;;;5021675;28;87134;-42
2022/09/19 14:36:27;;;;;;;;;;;14.30;61.70;;;;;;5022065;28;87403;-42
2022/09/19 14:39:13;;;;;;;;;;;14.30;61.80;;;;;;5022111;28;90078;-42
2022/09/19 14:41:58;;;;;;;;;;;14.30;61.80;;;;;;5021908;28;86986;-42
2022/09/19 14:44:46;;;;;;;;;;;14.40;61.80;;;;;;5020627;28;90530;-42
2022/09/19 14:47:15;;;;;;;;;;;14.30;61.70;;;;;;5013443;28;88791;-42
2022/09/19 14:49:47;;;;;;;;;;;14.40;61.70;;;;;;5024740;28;87131;-42
2022/09/19 14:52:18;;;;;;;;;;;14.40;61.80;;;;;;5021438;28;87444;-42
2022/09/19 14:54:56;;;;;;;;;;;14.40;61.70;;;;;;5021562;28;87010;-42
2022/09/19 14:57:22;;;;;;;;;;;14.40;61.80;;;;;;5021581;28;87351;-42